Terminal Aerodrome Forecast
Issued by NWS

Home | Current Version | Previous Version | Text Only | Print | Product List | Glossary On
Versions: 1 2 3 4 5 6 7 8 9 10 11 12 13 14 15 16 17 18 19 20 21 22 23 24 25 26 27 28 29 30 31 32 33
000
FTUS46 KMTR 232300 RRA
TAFSFO
TAF
KSFO 232345Z 2400/2506 29018G25KT P6SM SCT015
      TEMPO 2400/2403 BKN015
     FM240400 29011KT P6SM FEW012
     FM241500 28005KT P6SM SKC
     FM242100 29012KT P6SM SKC=

USA.gov is the U.S. government's official web portal to all federal, state and local government web resources and services.